Weather at Simon Heliport

Public forecast

Using degrees Fahrenheit for public forecast. Weather courtesy of forecast.io.

Closest aviation weather report (METAR) to Simon Heliport

Closest report is North Platte Regional Airport Lee Bird Field, 3.0 nm (5.6 km) ENE. Retrieved 2022/01/27 07:53 UTC (50 minutes ago):

KLBF 270753Z AUTO 28008KT 10SM CLR M02/M07 A3012 RMK AO2 SLP224 T10171067

Closest aviation forecast (TAF) to Simon Heliport

Closest forecast is North Platte Regional Airport Lee Bird Field, 3.0 nm (5.6 km) ENE. Retrieved 2022/01/27 06:22 UTC (2 hours ago):

TAF KLBF 270520Z 2706/2806 29006KT P6SM SCT180 FM271500 33011KT P6SM BKN090 FM271800 34014G22KT P6SM BKN040 FM272200 34013KT P6SM BKN035 FM280000 33006KT P6SM SCT070